Time;durP1;ratioP1;P1;durP2;ratioP2;P2;SDS_P1;SDS_P2;PMS_P1;PMS_P2;Temp;Humidity;BMP_temperature;BMP_pressure;BME280_temperature;BME280_humidity;BME280_pressure;Samples;Min_cycle;Max_cycle;Signal;HPM_P1;HPM_P2
2022/11/26 00:00:28;;;;;;;9.60;3.95;;;8.00;99.90;;;;;;5997139;23;20188;-76
2022/11/26 00:02:56;;;;;;;8.07;3.88;;;7.90;99.90;;;;;;5988661;23;20200;-76
2022/11/26 00:05:24;;;;;;;12.25;4.30;;;7.90;99.90;;;;;;5991778;23;20296;-75
2022/11/26 00:07:55;;;;;;;7.80;4.20;;;7.80;99.90;;;;;;5995020;23;20200;-77
2022/11/26 00:10:26;;;;;;;9.75;4.57;;;7.80;99.90;;;;;;5999220;23;20732;-75
2022/11/26 00:12:55;;;;;;;6.60;4.75;;;7.80;99.90;;;;;;5988599;23;20250;-76
2022/11/26 00:15:23;;;;;;;8.23;4.57;;;7.70;99.90;;;;;;5998301;23;20192;-76
2022/11/26 00:17:53;;;;;;;13.20;5.10;;;7.60;99.90;;;;;;5990937;23;20191;-76
2022/11/26 00:20:24;;;;;;;7.68;4.70;;;7.60;99.90;;;;;;5991765;23;20194;-76
2022/11/26 00:22:55;;;;;;;11.95;5.38;;;7.50;99.90;;;;;;5997755;23;20226;-76
2022/11/26 00:25:26;;;;;;;13.18;5.15;;;7.40;99.90;;;;;;6001479;23;20328;-76
2022/11/26 00:27:55;;;;;;;9.63;5.53;;;7.40;99.90;;;;;;6000028;23;20218;-75
2022/11/26 00:30:24;;;;;;;10.32;5.03;;;7.40;99.90;;;;;;6000560;23;20258;-76
2022/11/26 00:32:52;;;;;;;9.35;5.28;;;7.40;99.90;;;;;;6002963;23;20204;-76
2022/11/26 00:35:20;;;;;;;12.75;5.05;;;7.30;99.90;;;;;;5997771;23;20191;-76
2022/11/26 00:37:51;;;;;;;10.45;4.85;;;7.40;99.90;;;;;;5989895;23;20273;-75
2022/11/26 00:40:21;;;;;;;11.18;5.40;;;7.40;99.90;;;;;;5994774;23;20583;-75
2022/11/26 00:42:51;;;;;;;9.10;4.45;;;7.50;99.90;;;;;;6003348;23;20198;-76
2022/11/26 00:45:20;;;;;;;9.18;4.85;;;7.50;99.90;;;;;;6003720;23;20230;-75
2022/11/26 00:47:47;;;;;;;17.05;6.10;;;7.50;99.90;;;;;;6000432;23;20341;-76
2022/11/26 00:50:17;;;;;;;11.25;5.15;;;7.50;99.90;;;;;;6003899;23;20302;-76
2022/11/26 00:52:45;;;;;;;10.48;5.05;;;7.50;99.90;;;;;;5996038;23;20277;-76
2022/11/26 00:55:26;;;;;;;8.13;4.55;;;7.50;99.90;;;;;;5998761;23;20760;-75
2022/11/26 00:57:55;;;;;;;7.40;5.38;;;7.50;99.90;;;;;;6001833;23;21479;-75
2022/11/26 01:00:24;;;;;;;8.02;4.20;;;7.50;99.90;;;;;;6004442;23;20195;-75
2022/11/26 01:02:52;;;;;;;10.68;4.85;;;7.50;99.90;;;;;;6002977;23;20206;-75
2022/11/26 01:05:21;;;;;;;9.05;4.95;;;7.50;99.90;;;;;;6004128;23;20207;-75
2022/11/26 01:07:48;;;;;;;7.60;4.03;;;7.40;99.90;;;;;;6001974;23;20253;-75
2022/11/26 01:10:18;;;;;;;6.97;4.55;;;7.40;99.90;;;;;;5988903;23;20234;-75
2022/11/26 01:12:46;;;;;;;7.57;4.57;;;7.50;99.90;;;;;;6002191;23;20758;-75
2022/11/26 01:15:16;;;;;;;8.75;3.97;;;7.50;99.90;;;;;;6000540;23;20209;-76
2022/11/26 01:17:43;;;;;;;11.20;3.63;;;7.50;99.90;;;;;;6000896;23;20222;-76
2022/11/26 01:20:22;;;;;;;11.15;4.32;;;7.50;99.90;;;;;;5990937;23;20191;-75
2022/11/26 01:22:51;;;;;;;8.10;4.00;;;7.60;99.90;;;;;;5985787;23;20283;-76
2022/11/26 01:25:19;;;;;;;6.18;4.38;;;7.60;99.90;;;;;;6000021;23;20277;-76
2022/11/26 01:27:46;;;;;;;6.15;4.03;;;7.60;99.90;;;;;;6004993;23;20196;-76
2022/11/26 01:30:20;;;;;;;8.75;3.90;;;7.70;99.90;;;;;;6002148;23;20205;-76
2022/11/26 01:32:48;;;;;;;7.50;3.90;;;7.70;99.90;;;;;;6003270;23;20772;-76
2022/11/26 01:35:16;;;;;;;8.70;3.63;;;7.80;99.90;;;;;;6000951;23;20537;-76
2022/11/26 01:37:43;;;;;;;7.97;3.55;;;7.80;99.90;;;;;;5999895;23;20194;-76
2022/11/26 01:40:45;;;;;;;9.00;4.30;;;7.80;99.90;;;;;;6000801;23;20205;-76
2022/11/26 01:43:17;;;;;;;8.60;4.13;;;7.90;99.90;;;;;;6002919;23;20195;-76
2022/11/26 01:45:46;;;;;;;7.57;3.58;;;7.90;99.90;;;;;;6001927;23;20736;-76
2022/11/26 01:48:23;;;;;;;10.82;4.65;;;7.90;99.90;;;;;;6003959;23;20253;-76
2022/11/26 01:51:07;;;;;;;7.53;3.80;;;7.90;99.90;;;;;;6002732;23;20227;-76
2022/11/26 01:53:45;;;;;;;6.68;3.83;;;7.90;99.90;;;;;;6000059;23;20188;-76
2022/11/26 01:56:20;;;;;;;8.93;4.55;;;7.90;99.90;;;;;;6012848;23;20186;-76
2022/11/26 01:58:51;;;;;;;7.32;4.30;;;7.90;99.90;;;;;;5999022;23;20222;-76
2022/11/26 02:01:20;;;;;;;7.82;3.80;;;7.90;99.90;;;;;;5999324;23;20654;-76
2022/11/26 02:03:56;;;;;;;7.72;3.90;;;7.90;99.90;;;;;;6002348;23;20300;-76
2022/11/26 02:06:28;;;;;;;9.27;4.60;;;7.90;99.90;;;;;;6004251;23;20727;-76
2022/11/26 02:08:57;;;;;;;12.75;5.30;;;7.90;99.90;;;;;;6004110;23;20199;-76
2022/11/26 02:11:25;;;;;;;9.02;4.80;;;7.80;99.90;;;;;;6001866;23;20296;-76
2022/11/26 02:13:55;;;;;;;10.55;4.95;;;7.90;99.90;;;;;;6001239;23;20201;-76
2022/11/26 02:16:36;;;;;;;8.23;4.28;;;7.80;99.90;;;;;;6001770;23;20277;-75
2022/11/26 02:19:35;;;;;;;10.57;4.82;;;7.80;99.90;;;;;;6000510;23;20199;-75
2022/11/26 02:22:09;;;;;;;10.30;4.07;;;7.80;99.90;;;;;;6003722;23;20222;-76
2022/11/26 02:24:48;;;;;;;10.13;4.25;;;7.80;99.90;;;;;;6003788;23;20333;-75
2022/11/26 02:27:44;;;;;;;7.78;4.18;;;7.80;99.90;;;;;;6001283;23;20200;-76
2022/11/26 02:30:14;;;;;;;8.65;4.43;;;7.80;99.90;;;;;;5999833;23;20233;-76
2022/11/26 02:32:56;;;;;;;6.65;3.88;;;7.80;99.90;;;;;;6002670;23;20608;-75
2022/11/26 02:35:28;;;;;;;10.38;4.47;;;7.80;99.90;;;;;;6009063;23;20265;-75
2022/11/26 02:37:57;;;;;;;9.75;4.38;;;7.80;99.90;;;;;;6003161;23;20199;-76
2022/11/26 02:40:27;;;;;;;10.13;4.55;;;7.80;99.90;;;;;;6003785;23;20229;-76
2022/11/26 02:42:54;;;;;;;8.88;4.68;;;7.80;99.90;;;;;;6001937;23;20253;-76
2022/11/26 02:45:25;;;;;;;8.45;4.60;;;7.80;99.90;;;;;;6003389;23;20289;-75
2022/11/26 02:47:56;;;;;;;7.60;4.30;;;7.80;99.90;;;;;;6001628;23;20268;-75
2022/11/26 02:50:27;;;;;;;8.25;4.88;;;7.80;99.90;;;;;;5993824;23;20222;-76
2022/11/26 02:52:58;;;;;;;9.75;4.70;;;7.70;99.90;;;;;;6005402;23;20185;-76
2022/11/26 02:55:29;;;;;;;9.15;4.60;;;7.70;99.90;;;;;;6003930;23;20246;-76
2022/11/26 02:57:58;;;;;;;10.20;4.20;;;7.70;99.90;;;;;;5992188;23;20195;-76
2022/11/26 03:00:26;;;;;;;7.05;5.07;;;7.70;99.90;;;;;;6001618;23;20222;-75
2022/11/26 03:03:00;;;;;;;8.68;4.40;;;7.70;99.90;;;;;;5996137;23;20654;-75
2022/11/26 03:05:31;;;;;;;11.60;4.13;;;7.70;99.90;;;;;;6002501;23;20277;-76
2022/11/26 03:07:59;;;;;;;8.48;5.05;;;7.70;99.90;;;;;;5998301;23;21694;-76
2022/11/26 03:10:28;;;;;;;10.10;4.53;;;7.70;99.90;;;;;;5995299;23;20620;-76
2022/11/26 03:12:55;;;;;;;9.18;4.30;;;7.70;99.90;;;;;;6003253;23;20276;-76
2022/11/26 03:15:22;;;;;;;9.35;4.25;;;7.70;99.90;;;;;;5999957;23;20272;-76
2022/11/26 03:17:51;;;;;;;6.00;4.22;;;7.70;99.90;;;;;;6003912;23;20215;-75
2022/11/26 03:20:19;;;;;;;11.32;5.18;;;7.60;99.90;;;;;;6004491;23;20732;-76
2022/11/26 03:22:46;;;;;;;9.68;4.55;;;7.60;99.90;;;;;;5995339;23;20214;-76
2022/11/26 03:25:14;;;;;;;9.88;5.13;;;7.60;99.90;;;;;;6004335;23;20352;-76
2022/11/26 03:27:43;;;;;;;15.82;5.10;;;7.70;99.90;;;;;;5994953;23;20196;-76
2022/11/26 03:30:10;;;;;;;7.45;4.78;;;7.60;99.90;;;;;;6002772;23;20233;-76
2022/11/26 03:32:38;;;;;;;7.28;4.75;;;7.60;99.90;;;;;;6001542;23;20221;-76
2022/11/26 03:35:09;;;;;;;8.75;4.90;;;7.70;99.90;;;;;;6001977;23;20265;-76
2022/11/26 03:37:36;;;;;;;9.60;4.50;;;7.70;99.90;;;;;;5990653;23;20222;-76
2022/11/26 03:40:04;;;;;;;8.68;5.72;;;7.70;99.90;;;;;;6002141;23;20627;-76
2022/11/26 03:42:31;;;;;;;11.50;5.13;;;7.70;99.90;;;;;;6002297;23;20190;-76
2022/11/26 03:44:58;;;;;;;10.40;5.03;;;7.60;99.90;;;;;;6004381;23;20343;-76
2022/11/26 03:47:26;;;;;;;6.53;4.95;;;7.60;99.90;;;;;;5998284;23;20234;-76
2022/11/26 03:49:54;;;;;;;9.43;5.35;;;7.60;99.90;;;;;;6001931;23;20206;-75
2022/11/26 03:52:22;;;;;;;11.05;5.53;;;7.50;99.90;;;;;;5998956;23;21478;-76
2022/11/26 03:54:49;;;;;;;9.82;5.38;;;7.50;99.90;;;;;;6002968;23;20277;-75
2022/11/26 03:57:17;;;;;;;9.50;5.22;;;7.50;99.90;;;;;;5997106;23;20298;-75
2022/11/26 03:59:44;;;;;;;10.60;5.75;;;7.40;99.90;;;;;;6003583;23;20619;-76
2022/11/26 04:02:11;;;;;;;8.20;4.97;;;7.40;99.90;;;;;;5997464;23;20601;-75
2022/11/26 04:04:39;;;;;;;9.63;5.47;;;7.40;99.90;;;;;;6003737;23;20206;-75
2022/11/26 04:07:06;;;;;;;11.40;5.70;;;7.30;99.90;;;;;;6002456;23;20194;-75
2022/11/26 04:09:35;;;;;;;9.02;5.15;;;7.30;99.90;;;;;;6003293;23;20225;-75
2022/11/26 04:12:02;;;;;;;10.80;5.38;;;7.30;99.90;;;;;;6003463;23;20213;-75
2022/11/26 04:14:29;;;;;;;9.70;5.78;;;7.20;99.90;;;;;;5996485;23;20281;-75
2022/11/26 04:16:56;;;;;;;12.35;5.35;;;7.20;99.90;;;;;;6004646;23;20226;-76
2022/11/26 04:19:23;;;;;;;11.25;5.55;;;7.20;99.90;;;;;;6002797;23;20229;-76
2022/11/26 04:21:50;;;;;;;9.13;4.90;;;7.20;99.90;;;;;;6003786;23;20198;-75
2022/11/26 04:24:18;;;;;;;10.95;5.80;;;7.20;99.90;;;;;;6003873;23;20272;-75
2022/11/26 04:26:47;;;;;;;12.27;5.57;;;7.20;99.90;;;;;;6002419;23;20320;-76
2022/11/26 04:29:14;;;;;;;9.88;5.00;;;7.20;99.90;;;;;;5994732;23;20230;-75
2022/11/26 04:31:41;;;;;;;12.60;6.93;;;7.10;99.90;;;;;;6004498;23;20707;-76
2022/11/26 04:34:08;;;;;;;10.60;5.45;;;7.20;99.90;;;;;;6003304;23;20200;-75
2022/11/26 04:36:35;;;;;;;9.10;5.65;;;7.20;99.90;;;;;;6003878;23;20287;-76
2022/11/26 04:39:03;;;;;;;11.45;5.57;;;7.20;99.90;;;;;;6003926;23;20206;-75
2022/11/26 04:41:31;;;;;;;13.60;5.68;;;7.10;99.90;;;;;;6000984;23;20661;-75
2022/11/26 04:44:00;;;;;;;15.00;5.78;;;7.20;99.90;;;;;;6003756;23;20273;-75
2022/11/26 04:46:27;;;;;;;11.27;5.30;;;7.20;99.90;;;;;;6000445;23;20692;-75
2022/11/26 04:48:54;;;;;;;10.45;6.03;;;7.20;99.90;;;;;;5999734;23;20200;-75
2022/11/26 04:51:21;;;;;;;10.68;6.05;;;7.10;99.90;;;;;;6001886;23;20278;-75
2022/11/26 04:53:48;;;;;;;8.80;6.07;;;7.20;99.90;;;;;;5977067;24;20246;-75
2022/11/26 04:56:16;;;;;;;8.75;5.97;;;7.20;99.90;;;;;;5999063;23;20195;-76
2022/11/26 04:58:43;;;;;;;11.98;5.80;;;7.20;99.90;;;;;;5991830;23;20275;-76
2022/11/26 05:01:11;;;;;;;10.77;5.60;;;7.20;99.90;;;;;;6002943;23;20200;-76
2022/11/26 05:03:38;;;;;;;11.73;5.93;;;7.20;99.90;;;;;;6002530;23;20274;-76
2022/11/26 05:06:06;;;;;;;9.63;6.75;;;7.10;99.90;;;;;;6004120;23;20200;-76
2022/11/26 05:08:34;;;;;;;11.88;6.53;;;7.10;99.90;;;;;;6003174;23;20254;-75
2022/11/26 05:11:02;;;;;;;12.02;7.13;;;7.10;99.90;;;;;;5996451;23;20199;-75
2022/11/26 05:13:29;;;;;;;11.90;6.20;;;7.10;99.90;;;;;;5998526;23;20219;-75
2022/11/26 05:15:56;;;;;;;9.40;6.40;;;7.10;99.90;;;;;;6006591;23;20236;-75
2022/11/26 05:18:25;;;;;;;12.75;6.25;;;7.10;99.90;;;;;;6008020;23;20201;-75
2022/11/26 05:20:52;;;;;;;11.10;6.72;;;7.10;99.90;;;;;;5993435;23;20290;-75
2022/11/26 05:23:20;;;;;;;9.27;6.30;;;7.00;99.90;;;;;;6003087;23;20278;-75
2022/11/26 05:25:48;;;;;;;13.07;7.07;;;7.00;99.90;;;;;;6004091;23;20196;-76
2022/11/26 05:28:15;;;;;;;12.25;6.93;;;6.90;99.90;;;;;;6003461;23;20582;-75
2022/11/26 05:30:42;;;;;;;11.55;7.22;;;6.90;99.90;;;;;;6000406;23;20194;-75
2022/11/26 05:33:10;;;;;;;12.82;6.88;;;6.90;99.90;;;;;;6002572;23;20234;-75
2022/11/26 05:35:39;;;;;;;12.20;7.88;;;6.80;99.90;;;;;;6000761;23;20210;-76
2022/11/26 05:38:06;;;;;;;12.63;7.18;;;6.80;99.90;;;;;;5994618;23;20253;-75
2022/11/26 05:40:34;;;;;;;11.73;7.32;;;6.80;99.90;;;;;;6002960;23;20256;-75
2022/11/26 05:43:01;;;;;;;10.43;7.10;;;6.80;99.90;;;;;;6003476;23;20272;-75
2022/11/26 05:45:28;;;;;;;14.90;7.60;;;6.70;99.90;;;;;;6000772;23;20541;-75
2022/11/26 05:47:55;;;;;;;9.82;7.60;;;6.70;99.90;;;;;;6002581;23;20256;-75
2022/11/26 05:50:22;;;;;;;9.63;6.72;;;6.60;99.90;;;;;;6002516;23;20609;-76
2022/11/26 05:52:51;;;;;;;14.25;8.65;;;6.60;99.90;;;;;;5996141;23;20253;-76
2022/11/26 05:55:18;;;;;;;12.55;8.77;;;6.50;99.90;;;;;;5992564;23;20194;-76
2022/11/26 05:57:45;;;;;;;13.23;7.85;;;6.40;99.90;;;;;;6003577;23;20233;-75
2022/11/26 06:00:15;;;;;;;15.85;9.02;;;6.30;99.90;;;;;;5999724;23;20194;-75
2022/11/26 06:02:42;;;;;;;13.57;8.68;;;6.30;99.90;;;;;;5999834;23;20243;-75
2022/11/26 06:05:10;;;;;;;11.02;8.52;;;6.20;99.90;;;;;;6007037;23;20213;-75
2022/11/26 06:07:37;;;;;;;9.90;8.30;;;6.20;99.90;;;;;;6003119;23;20273;-75
2022/11/26 06:10:08;;;;;;;15.95;9.32;;;6.10;99.90;;;;;;6001219;23;20202;-75
2022/11/26 06:12:36;;;;;;;12.38;8.82;;;6.10;99.90;;;;;;6025550;23;20222;-75
2022/11/26 06:15:03;;;;;;;15.30;8.63;;;6.10;99.90;;;;;;6003649;23;20273;-75
2022/11/26 06:17:31;;;;;;;21.25;9.13;;;6.00;99.90;;;;;;5995008;23;20194;-75
2022/11/26 06:19:58;;;;;;;11.68;9.35;;;5.90;99.90;;;;;;6002603;23;20682;-75
2022/11/26 06:22:25;;;;;;;16.80;9.77;;;5.80;99.90;;;;;;5999625;23;20188;-75
2022/11/26 06:24:53;;;;;;;19.23;11.25;;;5.80;99.90;;;;;;5997504;23;20609;-76
2022/11/26 06:27:22;;;;;;;37.35;11.45;;;5.80;99.90;;;;;;5991890;23;20589;-75
2022/11/26 06:29:49;;;;;;;19.95;10.20;;;5.80;99.90;;;;;;6003703;23;20194;-75
2022/11/26 06:32:17;;;;;;;31.92;11.52;;;5.70;99.90;;;;;;6002592;23;20222;-75
2022/11/26 06:34:44;;;;;;;20.63;10.35;;;5.70;99.90;;;;;;5996142;23;20642;-75
2022/11/26 06:37:11;;;;;;;9.95;9.05;;;5.70;99.90;;;;;;6011579;23;20213;-75
2022/11/26 06:39:38;;;;;;;11.30;9.50;;;5.70;99.90;;;;;;6002422;23;20542;-76
2022/11/26 06:42:06;;;;;;;15.88;11.00;;;5.70;99.90;;;;;;6001824;23;20273;-75
2022/11/26 06:44:36;;;;;;;14.98;11.20;;;5.70;99.90;;;;;;6002705;23;20198;-75
2022/11/26 06:47:04;;;;;;;10.98;9.43;;;5.70;99.90;;;;;;5994249;23;20211;-75
2022/11/26 06:49:31;;;;;;;11.10;10.00;;;5.70;99.90;;;;;;5991152;23;20284;-75
2022/11/26 06:51:58;;;;;;;12.45;9.77;;;5.80;99.90;;;;;;6001379;23;20194;-75
2022/11/26 06:54:25;;;;;;;12.30;9.98;;;5.70;99.90;;;;;;6001897;23;20216;-75
2022/11/26 06:56:52;;;;;;;14.60;10.98;;;5.80;99.90;;;;;;6003369;23;20221;-75
2022/11/26 06:59:19;;;;;;;12.00;10.52;;;5.70;99.90;;;;;;6003880;23;20194;-75
2022/11/26 07:01:48;;;;;;;11.40;9.52;;;5.70;99.90;;;;;;6004534;23;20265;-76
2022/11/26 07:04:15;;;;;;;14.52;11.38;;;5.70;99.90;;;;;;6004596;23;20285;-75
2022/11/26 07:06:42;;;;;;;16.92;13.05;;;5.80;99.90;;;;;;6001618;23;20252;-75
2022/11/26 07:09:10;;;;;;;15.30;11.25;;;5.80;99.90;;;;;;5992492;23;20559;-75
2022/11/26 07:11:38;;;;;;;11.40;10.20;;;5.80;99.90;;;;;;6003873;23;20567;-75
2022/11/26 07:14:06;;;;;;;13.15;10.90;;;5.80;99.90;;;;;;6004185;23;20214;-75
2022/11/26 07:16:35;;;;;;;15.13;13.07;;;5.80;99.90;;;;;;6006252;23;20201;-75
2022/11/26 07:19:04;;;;;;;16.25;12.07;;;5.80;99.90;;;;;;6003120;23;20202;-75
2022/11/26 07:21:31;;;;;;;14.85;12.00;;;5.80;99.90;;;;;;6000727;23;20285;-75
2022/11/26 07:23:58;;;;;;;14.13;11.93;;;5.90;99.90;;;;;;6003651;23;20217;-75
2022/11/26 07:26:26;;;;;;;16.17;12.27;;;5.90;99.90;;;;;;6006571;23;20202;-75
2022/11/26 07:28:53;;;;;;;14.38;11.10;;;5.90;99.90;;;;;;6011330;23;20255;-76
2022/11/26 07:31:22;;;;;;;18.60;11.93;;;5.90;99.90;;;;;;6004704;23;20277;-75
2022/11/26 07:33:50;;;;;;;16.67;10.85;;;5.90;99.90;;;;;;6003395;23;20253;-75
2022/11/26 07:36:20;;;;;;;15.52;11.43;;;5.90;99.90;;;;;;6000693;23;20389;-75
2022/11/26 07:38:48;;;;;;;11.73;10.57;;;6.00;99.90;;;;;;6002137;23;20194;-75
2022/11/26 07:41:17;;;;;;;12.48;10.98;;;6.00;99.90;;;;;;6003710;23;20229;-75
2022/11/26 07:43:45;;;;;;;13.18;11.77;;;5.90;99.90;;;;;;6004907;23;20606;-75
2022/11/26 07:46:17;;;;;;;13.23;10.98;;;5.90;99.90;;;;;;6003197;23;20206;-75
2022/11/26 07:48:44;;;;;;;11.85;10.68;;;6.00;99.90;;;;;;6004230;23;20285;-75
2022/11/26 07:51:18;;;;;;;11.10;9.85;;;6.00;99.90;;;;;;6001573;23;20202;-76
2022/11/26 07:53:47;;;;;;;13.70;11.07;;;6.00;99.90;;;;;;6003059;23;20288;-75
2022/11/26 07:56:15;;;;;;;15.13;10.27;;;6.00;99.90;;;;;;6002267;23;20209;-75
2022/11/26 07:58:42;;;;;;;15.82;12.10;;;6.00;99.90;;;;;;6002922;23;20225;-75
2022/11/26 08:01:11;;;;;;;13.18;10.70;;;6.00;99.90;;;;;;6004258;23;20273;-75
2022/11/26 08:03:39;;;;;;;13.00;10.88;;;6.10;99.90;;;;;;6003349;23;20205;-75
2022/11/26 08:06:08;;;;;;;12.00;10.88;;;6.10;99.90;;;;;;6001459;23;20190;-75
2022/11/26 08:08:36;;;;;;;13.55;10.65;;;6.10;99.90;;;;;;6002722;23;21812;-75
2022/11/26 08:11:11;;;;;;;13.80;11.18;;;6.10;99.90;;;;;;6004785;23;20273;-75
2022/11/26 08:13:39;;;;;;;18.63;12.63;;;6.10;99.90;;;;;;6012234;23;20524;-75
2022/11/26 08:16:07;;;;;;;15.85;9.63;;;6.10;99.90;;;;;;6007938;23;20198;-75
2022/11/26 08:18:34;;;;;;;11.45;10.25;;;6.10;99.90;;;;;;6004384;23;20655;-75
2022/11/26 08:21:02;;;;;;;13.13;10.57;;;6.10;99.90;;;;;;6000931;23;20666;-75
2022/11/26 08:23:30;;;;;;;14.35;10.00;;;6.20;99.90;;;;;;5988590;23;20557;-75
2022/11/26 08:25:57;;;;;;;12.68;10.20;;;6.30;99.90;;;;;;5998284;23;20198;-76
2022/11/26 08:28:26;;;;;;;13.63;9.68;;;6.20;99.90;;;;;;6002884;23;20229;-76
2022/11/26 08:31:01;;;;;;;12.85;9.57;;;6.30;99.90;;;;;;6004109;23;20205;-75
2022/11/26 08:33:29;;;;;;;9.68;8.68;;;6.30;99.90;;;;;;6005727;23;20210;-75
2022/11/26 08:35:57;;;;;;;12.63;9.18;;;6.30;99.90;;;;;;6002597;23;20752;-77
2022/11/26 08:38:24;;;;;;;12.75;8.95;;;6.30;99.90;;;;;;6000028;23;20240;-75
2022/11/26 08:40:53;;;;;;;13.55;10.43;;;6.40;99.90;;;;;;6002191;23;20205;-75
2022/11/26 08:43:20;;;;;;;9.98;8.98;;;6.40;99.90;;;;;;5999961;23;20197;-74
2022/11/26 08:45:54;;;;;;;13.95;10.07;;;6.60;99.90;;;;;;6005175;23;20656;-75
2022/11/26 08:48:21;;;;;;;11.90;8.90;;;6.70;99.90;;;;;;6006922;23;20197;-75
2022/11/26 08:50:48;;;;;;;8.75;7.85;;;6.90;99.90;;;;;;6006251;23;20650;-75
2022/11/26 08:53:16;;;;;;;10.25;7.95;;;7.20;99.90;;;;;;6004243;23;20657;-75
2022/11/26 08:55:43;;;;;;;9.73;7.82;;;7.60;99.90;;;;;;6006134;23;20229;-75
2022/11/26 08:58:10;;;;;;;8.45;7.03;;;7.80;99.90;;;;;;6002416;23;20286;-79
2022/11/26 09:00:37;;;;;;;10.77;7.80;;;8.00;99.90;;;;;;6004229;23;20193;-75
2022/11/26 09:03:06;;;;;;;8.55;6.70;;;8.30;99.90;;;;;;6001351;23;20208;-75
2022/11/26 09:05:33;;;;;;;11.27;6.88;;;8.50;99.90;;;;;;6001827;23;20612;-74
2022/11/26 09:08:00;;;;;;;9.32;7.00;;;8.90;99.90;;;;;;6000316;23;20277;-75
2022/11/26 09:10:28;;;;;;;7.70;6.55;;;9.30;99.90;;;;;;6002735;23;20206;-75
2022/11/26 09:12:55;;;;;;;8.35;7.35;;;9.60;99.90;;;;;;6003119;23;20679;-76
2022/11/26 09:15:22;;;;;;;10.43;8.70;;;10.00;99.90;;;;;;6002508;23;20215;-76
2022/11/26 09:17:49;;;;;;;8.07;7.28;;;10.40;99.90;;;;;;5999185;23;20298;-75
2022/11/26 09:20:19;;;;;;;7.43;6.60;;;10.70;99.90;;;;;;5999555;23;20204;-76
2022/11/26 09:22:46;;;;;;;6.70;5.70;;;11.00;99.90;;;;;;6003737;23;20265;-75
2022/11/26 09:25:13;;;;;;;9.55;5.82;;;11.20;99.90;;;;;;6002476;23;20278;-75
2022/11/26 09:27:40;;;;;;;11.48;6.55;;;11.10;99.90;;;;;;6001474;23;20208;-75
2022/11/26 09:30:08;;;;;;;6.78;5.30;;;11.10;99.90;;;;;;5998318;23;20583;-75
2022/11/26 09:32:37;;;;;;;6.40;4.95;;;11.50;99.90;;;;;;5995678;23;20213;-75
2022/11/26 09:35:05;;;;;;;6.30;4.80;;;11.60;99.90;;;;;;6001907;23;20561;-75
2022/11/26 09:37:34;;;;;;;6.23;4.70;;;11.90;99.90;;;;;;5997074;23;20437;-75
2022/11/26 09:40:01;;;;;;;5.57;4.57;;;12.10;99.90;;;;;;6003329;23;20456;-75
2022/11/26 09:42:43;;;;;;;6.60;4.70;;;12.40;99.90;;;;;;6001921;23;20439;-75
2022/11/26 09:45:23;;;;;;;5.10;4.57;;;12.80;99.90;;;;;;5993301;23;20453;-75
2022/11/26 09:47:53;;;;;;;5.50;4.80;;;12.80;99.90;;;;;;5996988;23;20443;-76
2022/11/26 09:50:26;;;;;;;5.93;3.80;;;12.90;99.90;;;;;;5998952;23;20443;-75
2022/11/26 09:52:59;;;;;;;5.83;3.83;;;13.60;99.90;;;;;;5996831;23;20619;-76
2022/11/26 09:55:30;;;;;;;6.80;4.77;;;14.20;99.90;;;;;;5997331;23;20503;-76
2022/11/26 09:58:05;;;;;;;8.43;5.00;;;15.00;99.90;;;;;;5990839;23;20812;-82
2022/11/26 10:00:37;;;;;;;9.70;5.17;;;15.60;99.90;;;;;;5995505;23;20456;-75
2022/11/26 10:03:15;;;;;;;6.27;5.67;;;15.90;99.90;;;;;;5994655;23;20994;-76
2022/11/26 10:05:57;;;;;;;9.27;5.00;;;15.90;99.90;;;;;;5997163;23;21124;-87
2022/11/26 10:11:43;;;;;;;9.73;5.50;;;15.90;99.90;;;;;;6163186;22;21026;-85
2022/11/26 10:14:28;;;;;;;7.73;4.30;;;16.30;99.90;;;;;;6140428;23;20912;-76
2022/11/26 10:17:11;;;;;;;8.60;4.30;;;16.40;99.90;;;;;;6137788;23;20433;-76
2022/11/26 10:19:49;;;;;;;6.83;4.93;;;16.30;99.90;;;;;;6133014;23;20423;-75
2022/11/26 10:22:23;;;;;;;7.73;5.57;;;16.30;99.90;;;;;;6136065;23;20459;-76
2022/11/26 10:24:50;;;;;;;7.17;5.30;;;16.40;99.90;;;;;;6135658;23;20442;-78
2022/11/26 10:27:20;;;;;;;6.20;5.00;;;16.50;99.90;;;;;;6132727;23;20451;-78
2022/11/26 10:29:51;;;;;;;6.53;5.30;;;16.50;99.90;;;;;;6147358;23;20475;-78
2022/11/26 10:32:22;;;;;;;6.47;5.87;;;16.70;99.90;;;;;;6147420;23;20432;-78
2022/11/26 10:34:51;;;;;;;8.57;5.47;;;16.70;99.90;;;;;;6140740;23;20443;-77
2022/11/26 10:37:21;;;;;;;7.50;5.50;;;16.40;99.90;;;;;;6135448;23;20938;-77
2022/11/26 10:39:48;;;;;;;9.13;6.20;;;15.90;99.90;;;;;;6141216;23;20428;-78
2022/11/26 10:42:20;;;;;;;7.90;5.70;;;15.20;99.90;;;;;;6142198;23;20428;-78
2022/11/26 10:44:49;;;;;;;7.53;5.43;;;14.80;99.90;;;;;;6138578;23;20472;-80
2022/11/26 10:47:23;;;;;;;8.07;5.43;;;14.40;99.90;;;;;;6143739;23;21032;-76
2022/11/26 10:49:52;;;;;;;9.00;6.10;;;14.00;99.90;;;;;;6142814;23;20966;-76
2022/11/26 10:52:23;;;;;;;6.33;4.80;;;13.80;99.90;;;;;;6135494;23;20446;-76
2022/11/26 10:55:15;;;;;;;9.40;5.83;;;13.20;99.90;;;;;;6140004;23;20429;-77
2022/11/26 10:57:49;;;;;;;8.52;5.10;;;12.60;99.90;;;;;;6155744;23;20434;-75
2022/11/26 11:00:35;;;;;;;8.55;5.53;;;12.00;99.90;;;;;;6145800;23;20187;-76
2022/11/26 11:03:04;;;;;;;10.75;6.80;;;11.50;99.90;;;;;;6139352;23;20679;-76
2022/11/26 11:05:33;;;;;;;7.00;5.40;;;11.20;99.90;;;;;;6141772;23;20270;-76
2022/11/26 11:08:00;;;;;;;7.68;5.63;;;11.00;99.90;;;;;;6145933;23;20209;-76
2022/11/26 11:10:27;;;;;;;12.52;6.10;;;10.80;99.90;;;;;;6155251;23;20289;-76
2022/11/26 11:13:11;;;;;;;6.90;4.88;;;10.60;99.90;;;;;;6142697;23;20273;-75
2022/11/26 11:15:40;;;;;;;8.82;4.90;;;10.40;99.90;;;;;;6137949;23;20194;-75
2022/11/26 11:18:18;;;;;;;10.65;6.18;;;10.30;99.90;;;;;;6150498;23;20213;-75
2022/11/26 11:20:52;;;;;;;8.00;5.05;;;10.30;99.90;;;;;;6131545;23;20237;-75
2022/11/26 11:23:23;;;;;;;6.10;5.10;;;10.30;99.90;;;;;;6140271;23;20289;-75
2022/11/26 11:25:59;;;;;;;8.07;4.20;;;10.40;99.90;;;;;;6148012;23;20269;-75
2022/11/26 11:28:30;;;;;;;7.43;4.68;;;10.40;99.90;;;;;;6134663;23;20261;-75
2022/11/26 11:31:02;;;;;;;4.82;3.75;;;10.60;99.90;;;;;;6136299;23;20294;-75
2022/11/26 11:33:30;;;;;;;7.65;4.32;;;10.60;99.90;;;;;;6123441;23;20549;-75
2022/11/26 11:35:59;;;;;;;8.32;5.20;;;10.70;99.90;;;;;;6132994;23;20194;-75
2022/11/26 11:38:29;;;;;;;10.68;5.60;;;10.80;99.90;;;;;;6130108;23;20190;-75
2022/11/26 11:40:57;;;;;;;7.95;6.63;;;10.80;99.90;;;;;;6141017;23;20191;-76
2022/11/26 11:43:25;;;;;;;7.32;5.40;;;10.70;99.90;;;;;;6138155;23;20227;-76
2022/11/26 11:46:26;;;;;;;5.88;5.25;;;10.60;99.90;;;;;;6142552;23;20224;-76
2022/11/26 11:49:03;;;;;;;8.45;4.80;;;10.90;99.90;;;;;;6157713;23;20203;-76
2022/11/26 11:51:40;;;;;;;6.80;4.63;;;11.40;99.90;;;;;;6165145;23;20287;-76
2022/11/26 11:54:20;;;;;;;6.53;4.60;;;12.20;99.90;;;;;;6161632;23;20485;-75
2022/11/26 11:56:54;;;;;;;6.70;4.07;;;13.20;99.90;;;;;;6148155;23;20496;-76
2022/11/26 11:59:46;;;;;;;8.30;4.23;;;14.10;99.90;;;;;;6137783;23;20445;-76
2022/11/26 12:02:33;;;;;;;5.97;3.93;;;14.90;99.90;;;;;;6137799;23;20485;-76
2022/11/26 12:05:31;;;;;;;7.03;3.10;;;15.80;99.90;;;;;;6140459;23;20861;-73
2022/11/26 12:08:09;;;;;;;5.83;4.70;;;16.50;99.90;;;;;;6121025;23;20444;-74
2022/11/26 12:10:45;;;;;;;8.13;5.13;;;16.20;99.90;;;;;;6140725;23;20492;-76
2022/11/26 12:13:14;;;;;;;6.20;5.60;;;15.90;99.90;;;;;;6146649;23;20439;-76
2022/11/26 12:15:50;;;;;;;8.67;5.13;;;15.80;99.90;;;;;;6145148;23;20527;-76
2022/11/26 12:18:25;;;;;;;7.30;5.53;;;15.70;99.90;;;;;;6142810;23;20466;-75
2022/11/26 12:20:56;;;;;;;13.70;10.17;;;15.60;99.90;;;;;;6147801;23;20464;-76
2022/11/26 12:23:29;;;;;;;10.60;5.90;;;15.80;99.90;;;;;;6141289;23;20428;-76
2022/11/26 12:26:05;;;;;;;9.63;5.87;;;16.00;99.90;;;;;;6128088;23;20491;-75
2022/11/26 12:28:37;;;;;;;7.57;6.33;;;16.20;99.90;;;;;;6127089;23;20443;-75
2022/11/26 12:31:10;;;;;;;9.13;5.53;;;16.40;99.90;;;;;;6130207;23;20538;-75
2022/11/26 12:33:45;;;;;;;8.17;5.17;;;16.70;99.90;;;;;;6134389;23;21554;-75
2022/11/26 12:36:19;;;;;;;6.40;4.53;;;16.80;99.90;;;;;;6128363;23;20515;-74
2022/11/26 12:38:51;;;;;;;6.80;5.17;;;16.90;99.90;;;;;;6124796;23;20509;-75
2022/11/26 12:41:23;;;;;;;5.83;4.97;;;17.10;99.90;;;;;;6129219;23;20563;-76
2022/11/26 12:43:58;;;;;;;8.43;5.17;;;17.10;99.90;;;;;;6132212;23;20444;-76
2022/11/26 12:46:34;;;;;;;7.07;5.27;;;17.20;99.90;;;;;;6133043;23;20434;-75
2022/11/26 12:49:17;;;;;;;10.00;5.23;;;17.20;99.90;;;;;;6125002;23;20456;-76
2022/11/26 12:51:55;;;;;;;7.97;6.00;;;16.60;99.90;;;;;;6138158;23;20532;-80
2022/11/26 12:54:27;;;;;;;8.80;5.83;;;16.10;99.90;;;;;;6143153;23;20441;-81
2022/11/26 12:57:01;;;;;;;6.07;5.20;;;15.90;99.90;;;;;;6137410;23;20447;-76
2022/11/26 12:59:32;;;;;;;8.60;6.03;;;15.80;99.90;;;;;;6128884;23;20433;-75
2022/11/26 13:02:01;;;;;;;11.67;6.13;;;15.80;99.90;;;;;;6128181;23;20428;-75
2022/11/26 13:04:31;;;;;;;7.80;5.67;;;15.70;99.90;;;;;;6140059;23;20436;-76
2022/11/26 13:07:13;;;;;;;7.80;5.57;;;15.60;99.90;;;;;;6138805;23;20454;-75